sensor_id;sensor_type;location;lat;lon;timestamp;temperature;humidity
30148;DHT22;16960;49.404;8.248;2023-02-22T00:00:12;20.70;37.90
30148;DHT22;16960;49.404;8.248;2023-02-22T00:02:45;20.70;37.90
30148;DHT22;16960;49.404;8.248;2023-02-22T00:05:13;20.60;38.40
30148;DHT22;16960;49.404;8.248;2023-02-22T00:07:42;20.60;37.80
30148;DHT22;16960;49.404;8.248;2023-02-22T00:10:09;20.60;37.80
30148;DHT22;16960;49.404;8.248;2023-02-22T00:12:40;20.60;37.80
30148;DHT22;16960;49.404;8.248;2023-02-22T00:15:08;20.60;37.80
30148;DHT22;16960;49.404;8.248;2023-02-22T00:17:37;20.60;37.90
30148;DHT22;16960;49.404;8.248;2023-02-22T00:20:06;20.60;37.90
30148;DHT22;16960;49.404;8.248;2023-02-22T00:22:33;20.60;37.80
30148;DHT22;16960;49.404;8.248;2023-02-22T00:25:00;20.50;37.90
30148;DHT22;16960;49.404;8.248;2023-02-22T00:27:27;20.60;38.00
30148;DHT22;16960;49.404;8.248;2023-02-22T00:29:55;20.50;37.90
30148;DHT22;16960;49.404;8.248;2023-02-22T00:32:22;20.50;37.90
30148;DHT22;16960;49.404;8.248;2023-02-22T00:34:51;20.50;38.00
30148;DHT22;16960;49.404;8.248;2023-02-22T00:37:19;20.50;38.00
30148;DHT22;16960;49.404;8.248;2023-02-22T00:39:46;20.50;38.00
30148;DHT22;16960;49.404;8.248;2023-02-22T00:42:14;20.50;38.00
30148;DHT22;16960;49.404;8.248;2023-02-22T00:44:41;20.50;38.00
30148;DHT22;16960;49.404;8.248;2023-02-22T00:47:09;20.50;38.10
30148;DHT22;16960;49.404;8.248;2023-02-22T00:49:36;20.50;38.10
30148;DHT22;16960;49.404;8.248;2023-02-22T00:52:04;20.40;37.90
30148;DHT22;16960;49.404;8.248;2023-02-22T00:54:31;20.40;38.00
30148;DHT22;16960;49.404;8.248;2023-02-22T00:56:57;20.40;38.00
30148;DHT22;16960;49.404;8.248;2023-02-22T00:59:24;20.40;38.00
30148;DHT22;16960;49.404;8.248;2023-02-22T01:01:51;20.40;38.00
30148;DHT22;16960;49.404;8.248;2023-02-22T01:04:20;20.40;38.00
30148;DHT22;16960;49.404;8.248;2023-02-22T01:06:47;20.40;38.00
30148;DHT22;16960;49.404;8.248;2023-02-22T01:09:14;20.40;37.90
30148;DHT22;16960;49.404;8.248;2023-02-22T01:11:40;20.40;38.00
30148;DHT22;16960;49.404;8.248;2023-02-22T01:14:07;20.40;38.00
30148;DHT22;16960;49.404;8.248;2023-02-22T01:16:36;20.40;38.00
30148;DHT22;16960;49.404;8.248;2023-02-22T01:19:03;20.40;38.00
30148;DHT22;16960;49.404;8.248;2023-02-22T01:21:32;20.40;38.00
30148;DHT22;16960;49.404;8.248;2023-02-22T01:23:59;20.40;38.00
30148;DHT22;16960;49.404;8.248;2023-02-22T01:26:25;20.30;38.00
30148;DHT22;16960;49.404;8.248;2023-02-22T01:28:52;20.40;38.10
30148;DHT22;16960;49.404;8.248;2023-02-22T01:31:19;20.30;38.10
30148;DHT22;16960;49.404;8.248;2023-02-22T01:33:48;20.30;38.00
30148;DHT22;16960;49.404;8.248;2023-02-22T01:36:16;20.30;38.10
30148;DHT22;16960;49.404;8.248;2023-02-22T01:38:45;20.30;38.00
30148;DHT22;16960;49.404;8.248;2023-02-22T01:41:12;20.30;38.00
30148;DHT22;16960;49.404;8.248;2023-02-22T01:43:42;20.30;38.00
30148;DHT22;16960;49.404;8.248;2023-02-22T01:46:20;20.30;38.00
30148;DHT22;16960;49.404;8.248;2023-02-22T01:48:49;20.30;37.90
30148;DHT22;16960;49.404;8.248;2023-02-22T01:51:20;20.30;37.90
30148;DHT22;16960;49.404;8.248;2023-02-22T01:53:51;20.30;37.90
30148;DHT22;16960;49.404;8.248;2023-02-22T01:56:21;20.30;37.90
30148;DHT22;16960;49.404;8.248;2023-02-22T01:58:52;20.30;37.90
30148;DHT22;16960;49.404;8.248;2023-02-22T02:01:22;20.30;37.90
30148;DHT22;16960;49.404;8.248;2023-02-22T02:03:50;20.30;37.90
30148;DHT22;16960;49.404;8.248;2023-02-22T02:06:19;20.30;37.90
30148;DHT22;16960;49.404;8.248;2023-02-22T02:08:52;20.30;38.00
30148;DHT22;16960;49.404;8.248;2023-02-22T02:11:23;20.30;37.90
30148;DHT22;16960;49.404;8.248;2023-02-22T02:13:51;20.20;37.80
30148;DHT22;16960;49.404;8.248;2023-02-22T02:16:20;20.20;37.90
30148;DHT22;16960;49.404;8.248;2023-02-22T02:18:47;20.20;37.90
30148;DHT22;16960;49.404;8.248;2023-02-22T02:27:23;20.20;37.80
30148;DHT22;16960;49.404;8.248;2023-02-22T02:33:03;20.20;37.90
30148;DHT22;16960;49.404;8.248;2023-02-22T02:35:41;20.20;37.90
30148;DHT22;16960;49.404;8.248;2023-02-22T02:38:15;20.20;37.90
30148;DHT22;16960;49.404;8.248;2023-02-22T02:40:48;20.20;37.90
30148;DHT22;16960;49.404;8.248;2023-02-22T02:43:23;20.20;37.80
30148;DHT22;16960;49.404;8.248;2023-02-22T02:45:57;20.20;37.90
30148;DHT22;16960;49.404;8.248;2023-02-22T02:48:27;20.20;37.80
30148;DHT22;16960;49.404;8.248;2023-02-22T02:50:59;20.10;37.80
30148;DHT22;16960;49.404;8.248;2023-02-22T02:53:30;20.20;37.80
30148;DHT22;16960;49.404;8.248;2023-02-22T02:55:58;20.10;37.80
30148;DHT22;16960;49.404;8.248;2023-02-22T02:58:25;20.20;37.80
30148;DHT22;16960;49.404;8.248;2023-02-22T03:00:56;20.10;37.80
30148;DHT22;16960;49.404;8.248;2023-02-22T03:03:49;20.10;37.80
30148;DHT22;16960;49.404;8.248;2023-02-22T03:06:44;20.10;38.40
30148;DHT22;16960;49.404;8.248;2023-02-22T03:09:23;20.20;37.80
30148;DHT22;16960;49.404;8.248;2023-02-22T03:11:58;20.20;37.90
30148;DHT22;16960;49.404;8.248;2023-02-22T03:14:35;20.20;37.90
30148;DHT22;16960;49.404;8.248;2023-02-22T03:17:12;20.20;37.80
30148;DHT22;16960;49.404;8.248;2023-02-22T03:19:49;20.10;37.80
30148;DHT22;16960;49.404;8.248;2023-02-22T03:22:21;20.10;38.40
30148;DHT22;16960;49.404;8.248;2023-02-22T03:24:55;20.20;37.90
30148;DHT22;16960;49.404;8.248;2023-02-22T03:27:26;20.10;37.80
30148;DHT22;16960;49.404;8.248;2023-02-22T03:29:57;20.10;37.80
30148;DHT22;16960;49.404;8.248;2023-02-22T03:32:29;20.10;37.80
30148;DHT22;16960;49.404;8.248;2023-02-22T03:35:04;20.10;37.80
30148;DHT22;16960;49.404;8.248;2023-02-22T03:37:35;20.20;37.80
30148;DHT22;16960;49.404;8.248;2023-02-22T03:40:11;20.10;37.90
30148;DHT22;16960;49.404;8.248;2023-02-22T03:42:42;20.10;37.80
30148;DHT22;16960;49.404;8.248;2023-02-22T03:45:13;20.10;37.80
30148;DHT22;16960;49.404;8.248;2023-02-22T03:47:44;20.10;37.80
30148;DHT22;16960;49.404;8.248;2023-02-22T03:50:18;20.10;37.80
30148;DHT22;16960;49.404;8.248;2023-02-22T03:52:46;20.10;37.80
30148;DHT22;16960;49.404;8.248;2023-02-22T03:55:14;20.10;37.80
30148;DHT22;16960;49.404;8.248;2023-02-22T03:57:45;20.10;37.80
30148;DHT22;16960;49.404;8.248;2023-02-22T04:00:17;20.10;37.80
30148;DHT22;16960;49.404;8.248;2023-02-22T04:02:44;20.10;37.80
30148;DHT22;16960;49.404;8.248;2023-02-22T04:05:11;20.10;37.80
30148;DHT22;16960;49.404;8.248;2023-02-22T04:07:41;20.10;37.80
30148;DHT22;16960;49.404;8.248;2023-02-22T04:10:08;20.10;37.80
30148;DHT22;16960;49.404;8.248;2023-02-22T04:12:35;20.10;37.80
30148;DHT22;16960;49.404;8.248;2023-02-22T04:15:03;20.10;37.80
30148;DHT22;16960;49.404;8.248;2023-02-22T04:17:30;20.10;37.80
30148;DHT22;16960;49.404;8.248;2023-02-22T04:19:57;20.00;37.70
30148;DHT22;16960;49.404;8.248;2023-02-22T04:22:24;20.10;37.80
30148;DHT22;16960;49.404;8.248;2023-02-22T04:24:53;20.10;37.80
30148;DHT22;16960;49.404;8.248;2023-02-22T04:27:20;20.10;37.80
30148;DHT22;16960;49.404;8.248;2023-02-22T04:29:47;20.10;37.80
30148;DHT22;16960;49.404;8.248;2023-02-22T04:32:13;20.10;37.70
30148;DHT22;16960;49.404;8.248;2023-02-22T04:34:40;20.10;37.70
30148;DHT22;16960;49.404;8.248;2023-02-22T04:37:07;20.10;37.70
30148;DHT22;16960;49.404;8.248;2023-02-22T04:39:35;20.10;37.70
30148;DHT22;16960;49.404;8.248;2023-02-22T04:42:03;20.00;37.60
30148;DHT22;16960;49.404;8.248;2023-02-22T04:44:30;20.00;37.60
30148;DHT22;16960;49.404;8.248;2023-02-22T04:46:57;20.00;37.60
30148;DHT22;16960;49.404;8.248;2023-02-22T04:49:24;20.00;37.60
30148;DHT22;16960;49.404;8.248;2023-02-22T04:51:51;20.00;37.60
30148;DHT22;16960;49.404;8.248;2023-02-22T04:54:18;20.00;37.70
30148;DHT22;16960;49.404;8.248;2023-02-22T04:56:45;20.00;37.60
30148;DHT22;16960;49.404;8.248;2023-02-22T04:59:13;20.00;37.60
30148;DHT22;16960;49.404;8.248;2023-02-22T05:01:40;20.00;37.60
30148;DHT22;16960;49.404;8.248;2023-02-22T05:04:07;20.00;37.60
30148;DHT22;16960;49.404;8.248;2023-02-22T05:06:34;20.00;37.60
30148;DHT22;16960;49.404;8.248;2023-02-22T05:09:01;20.00;37.60
30148;DHT22;16960;49.404;8.248;2023-02-22T05:11:28;20.00;37.60
30148;DHT22;16960;49.404;8.248;2023-02-22T05:13:55;20.10;37.60
30148;DHT22;16960;49.404;8.248;2023-02-22T05:16:23;20.10;37.60
30148;DHT22;16960;49.404;8.248;2023-02-22T05:18:51;20.20;37.60
30148;DHT22;16960;49.404;8.248;2023-02-22T05:21:18;20.20;37.50
30148;DHT22;16960;49.404;8.248;2023-02-22T05:23:45;20.20;37.50
30148;DHT22;16960;49.404;8.248;2023-02-22T05:26:12;20.20;37.40
30148;DHT22;16960;49.404;8.248;2023-02-22T05:28:38;20.20;37.40
30148;DHT22;16960;49.404;8.248;2023-02-22T05:31:05;20.30;37.40
30148;DHT22;16960;49.404;8.248;2023-02-22T05:33:34;20.30;37.40
30148;DHT22;16960;49.404;8.248;2023-02-22T05:36:01;20.40;37.30
30148;DHT22;16960;49.404;8.248;2023-02-22T05:38:28;20.40;37.30
30148;DHT22;16960;49.404;8.248;2023-02-22T05:40:55;20.40;37.30
30148;DHT22;16960;49.404;8.248;2023-02-22T05:43:22;20.50;37.40
30148;DHT22;16960;49.404;8.248;2023-02-22T05:45:49;20.50;37.40
30148;DHT22;16960;49.404;8.248;2023-02-22T05:48:16;20.50;37.40
30148;DHT22;16960;49.404;8.248;2023-02-22T05:50:44;20.50;37.30
30148;DHT22;16960;49.404;8.248;2023-02-22T05:53:11;20.60;37.30
30148;DHT22;16960;49.404;8.248;2023-02-22T05:55:38;20.60;37.20
30148;DHT22;16960;49.404;8.248;2023-02-22T05:58:05;20.60;37.20
30148;DHT22;16960;49.404;8.248;2023-02-22T06:00:32;20.70;37.20
30148;DHT22;16960;49.404;8.248;2023-02-22T06:03:01;20.70;37.20
30148;DHT22;16960;49.404;8.248;2023-02-22T06:05:28;20.70;37.20
30148;DHT22;16960;49.404;8.248;2023-02-22T06:07:57;20.70;37.20
30148;DHT22;16960;49.404;8.248;2023-02-22T06:10:25;20.70;37.20
30148;DHT22;16960;49.404;8.248;2023-02-22T06:12:53;20.80;37.10
30148;DHT22;16960;49.404;8.248;2023-02-22T06:15:22;20.70;37.10
30148;DHT22;16960;49.404;8.248;2023-02-22T06:17:50;20.80;37.10
30148;DHT22;16960;49.404;8.248;2023-02-22T06:20:18;20.80;37.10
30148;DHT22;16960;49.404;8.248;2023-02-22T06:22:46;20.80;37.00
30148;DHT22;16960;49.404;8.248;2023-02-22T06:25:16;20.80;37.00
30148;DHT22;16960;49.404;8.248;2023-02-22T06:27:44;20.80;37.00
30148;DHT22;16960;49.404;8.248;2023-02-22T06:30:14;20.80;37.00
30148;DHT22;16960;49.404;8.248;2023-02-22T06:32:41;20.90;37.10
30148;DHT22;16960;49.404;8.248;2023-02-22T06:35:08;20.80;37.10
30148;DHT22;16960;49.404;8.248;2023-02-22T06:37:35;20.80;37.00
30148;DHT22;16960;49.404;8.248;2023-02-22T06:40:03;20.90;37.10
30148;DHT22;16960;49.404;8.248;2023-02-22T06:42:31;20.90;37.10
30148;DHT22;16960;49.404;8.248;2023-02-22T06:44:58;20.90;37.10
30148;DHT22;16960;49.404;8.248;2023-02-22T06:47:25;20.90;37.00
30148;DHT22;16960;49.404;8.248;2023-02-22T06:49:53;20.90;37.00
30148;DHT22;16960;49.404;8.248;2023-02-22T06:52:20;20.90;36.90
30148;DHT22;16960;49.404;8.248;2023-02-22T06:54:47;20.90;36.80
30148;DHT22;16960;49.404;8.248;2023-02-22T06:57:15;20.90;36.70
30148;DHT22;16960;49.404;8.248;2023-02-22T06:59:43;20.90;36.70
30148;DHT22;16960;49.404;8.248;2023-02-22T07:02:11;20.90;36.60
30148;DHT22;16960;49.404;8.248;2023-02-22T07:04:38;20.90;36.50
30148;DHT22;16960;49.404;8.248;2023-02-22T07:07:05;20.90;36.40
30148;DHT22;16960;49.404;8.248;2023-02-22T07:09:32;20.90;36.30
30148;DHT22;16960;49.404;8.248;2023-02-22T07:11:59;20.90;36.30
30148;DHT22;16960;49.404;8.248;2023-02-22T07:14:26;20.90;36.50
30148;DHT22;16960;49.404;8.248;2023-02-22T07:16:54;20.90;36.30
30148;DHT22;16960;49.404;8.248;2023-02-22T07:19:21;20.90;36.30
30148;DHT22;16960;49.404;8.248;2023-02-22T07:21:49;20.90;36.20
30148;DHT22;16960;49.404;8.248;2023-02-22T07:24:22;21.00;36.20
30148;DHT22;16960;49.404;8.248;2023-02-22T07:26:49;21.10;36.00
30148;DHT22;16960;49.404;8.248;2023-02-22T07:29:16;21.00;35.80
30148;DHT22;16960;49.404;8.248;2023-02-22T07:31:43;21.10;35.70
30148;DHT22;16960;49.404;8.248;2023-02-22T07:34:12;21.00;35.60
30148;DHT22;16960;49.404;8.248;2023-02-22T07:36:39;21.10;35.70
30148;DHT22;16960;49.404;8.248;2023-02-22T07:39:06;21.20;35.60
30148;DHT22;16960;49.404;8.248;2023-02-22T07:41:34;21.20;35.50
30148;DHT22;16960;49.404;8.248;2023-02-22T07:44:01;21.20;35.50
30148;DHT22;16960;49.404;8.248;2023-02-22T07:46:27;21.20;35.40
30148;DHT22;16960;49.404;8.248;2023-02-22T07:48:55;21.20;35.30
30148;DHT22;16960;49.404;8.248;2023-02-22T07:51:23;21.30;35.30
30148;DHT22;16960;49.404;8.248;2023-02-22T07:53:51;21.30;35.30
30148;DHT22;16960;49.404;8.248;2023-02-22T07:56:18;21.30;35.40
30148;DHT22;16960;49.404;8.248;2023-02-22T07:58:45;21.30;35.40
30148;DHT22;16960;49.404;8.248;2023-02-22T08:01:12;21.30;35.10
30148;DHT22;16960;49.404;8.248;2023-02-22T08:03:39;21.30;35.00
30148;DHT22;16960;49.404;8.248;2023-02-22T08:06:07;21.40;35.00
30148;DHT22;16960;49.404;8.248;2023-02-22T08:08:35;21.40;35.00
30148;DHT22;16960;49.404;8.248;2023-02-22T08:11:03;21.40;35.60
30148;DHT22;16960;49.404;8.248;2023-02-22T08:13:30;21.40;34.80
30148;DHT22;16960;49.404;8.248;2023-02-22T08:15:57;21.40;34.80
30148;DHT22;16960;49.404;8.248;2023-02-22T08:18:24;21.40;34.70
30148;DHT22;16960;49.404;8.248;2023-02-22T08:20:52;21.40;34.80
30148;DHT22;16960;49.404;8.248;2023-02-22T08:23:21;21.50;34.60
30148;DHT22;16960;49.404;8.248;2023-02-22T08:25:51;21.50;34.60
30148;DHT22;16960;49.404;8.248;2023-02-22T08:28:20;21.50;34.50
30148;DHT22;16960;49.404;8.248;2023-02-22T08:30:48;21.50;34.40
30148;DHT22;16960;49.404;8.248;2023-02-22T08:33:16;21.50;34.30
30148;DHT22;16960;49.404;8.248;2023-02-22T08:35:45;21.50;34.30
30148;DHT22;16960;49.404;8.248;2023-02-22T08:38:19;21.60;34.30
30148;DHT22;16960;49.404;8.248;2023-02-22T08:40:47;21.60;34.20
30148;DHT22;16960;49.404;8.248;2023-02-22T08:43:16;21.60;34.20
30148;DHT22;16960;49.404;8.248;2023-02-22T08:45:43;21.60;34.30
30148;DHT22;16960;49.404;8.248;2023-02-22T08:48:11;21.70;34.20
30148;DHT22;16960;49.404;8.248;2023-02-22T08:50:38;21.70;34.30
30148;DHT22;16960;49.404;8.248;2023-02-22T08:53:08;21.70;34.30
30148;DHT22;16960;49.404;8.248;2023-02-22T08:55:36;21.70;34.30
30148;DHT22;16960;49.404;8.248;2023-02-22T08:58:05;21.70;34.50
30148;DHT22;16960;49.404;8.248;2023-02-22T09:00:36;21.70;34.40
30148;DHT22;16960;49.404;8.248;2023-02-22T09:03:04;21.70;34.40
30148;DHT22;16960;49.404;8.248;2023-02-22T09:05:31;21.70;34.40
30148;DHT22;16960;49.404;8.248;2023-02-22T09:07:59;21.70;34.40
30148;DHT22;16960;49.404;8.248;2023-02-22T09:10:28;21.70;34.50
30148;DHT22;16960;49.404;8.248;2023-02-22T09:12:56;21.70;34.60
30148;DHT22;16960;49.404;8.248;2023-02-22T09:15:25;21.70;34.60
30148;DHT22;16960;49.404;8.248;2023-02-22T09:17:54;21.70;34.70
30148;DHT22;16960;49.404;8.248;2023-02-22T09:20:22;21.70;34.70
30148;DHT22;16960;49.404;8.248;2023-02-22T09:22:50;21.70;34.70
30148;DHT22;16960;49.404;8.248;2023-02-22T09:25:17;21.70;34.80
30148;DHT22;16960;49.404;8.248;2023-02-22T09:27:47;21.70;34.80
30148;DHT22;16960;49.404;8.248;2023-02-22T09:30:19;21.70;34.80
30148;DHT22;16960;49.404;8.248;2023-02-22T09:32:49;21.70;34.90
30148;DHT22;16960;49.404;8.248;2023-02-22T09:35:18;21.70;35.00
30148;DHT22;16960;49.404;8.248;2023-02-22T09:37:45;21.70;35.00
30148;DHT22;16960;49.404;8.248;2023-02-22T09:40:16;21.70;35.00
30148;DHT22;16960;49.404;8.248;2023-02-22T09:43:00;21.70;35.00
30148;DHT22;16960;49.404;8.248;2023-02-22T09:45:32;21.70;35.10
30148;DHT22;16960;49.404;8.248;2023-02-22T09:48:04;21.60;34.90
30148;DHT22;16960;49.404;8.248;2023-02-22T09:50:37;21.70;35.10
30148;DHT22;16960;49.404;8.248;2023-02-22T09:53:22;21.70;35.10
30148;DHT22;16960;49.404;8.248;2023-02-22T09:55:55;21.60;35.00
30148;DHT22;16960;49.404;8.248;2023-02-22T09:58:27;21.60;35.00
30148;DHT22;16960;49.404;8.248;2023-02-22T10:01:07;21.60;35.00
30148;DHT22;16960;49.404;8.248;2023-02-22T10:03:47;21.60;35.10
30148;DHT22;16960;49.404;8.248;2023-02-22T10:06:19;21.60;35.10
30148;DHT22;16960;49.404;8.248;2023-02-22T10:08:48;21.60;35.10
30148;DHT22;16960;49.404;8.248;2023-02-22T10:11:28;21.70;35.10
30148;DHT22;16960;49.404;8.248;2023-02-22T10:14:04;21.70;35.20
30148;DHT22;16960;49.404;8.248;2023-02-22T10:16:37;21.70;35.20
30148;DHT22;16960;49.404;8.248;2023-02-22T10:19:20;21.70;35.20
30148;DHT22;16960;49.404;8.248;2023-02-22T10:22:03;21.70;35.10
30148;DHT22;16960;49.404;8.248;2023-02-22T10:24:43;21.80;35.10
30148;DHT22;16960;49.404;8.248;2023-02-22T10:27:16;22.00;34.80
30148;DHT22;16960;49.404;8.248;2023-02-22T10:29:47;22.10;34.70
30148;DHT22;16960;49.404;8.248;2023-02-22T10:32:19;22.30;34.40
30148;DHT22;16960;49.404;8.248;2023-02-22T10:34:49;22.40;34.30
30148;DHT22;16960;49.404;8.248;2023-02-22T10:37:24;22.40;34.20
30148;DHT22;16960;49.404;8.248;2023-02-22T10:39:57;22.40;34.40
30148;DHT22;16960;49.404;8.248;2023-02-22T10:42:26;22.50;34.30
30148;DHT22;16960;49.404;8.248;2023-02-22T10:44:54;22.50;34.50
30148;DHT22;16960;49.404;8.248;2023-02-22T10:47:21;22.40;34.30
30148;DHT22;16960;49.404;8.248;2023-02-22T10:49:50;22.50;34.50
30148;DHT22;16960;49.404;8.248;2023-02-22T10:52:25;22.50;34.60
30148;DHT22;16960;49.404;8.248;2023-02-22T10:54:56;22.50;34.50
30148;DHT22;16960;49.404;8.248;2023-02-22T10:57:26;22.60;34.40
30148;DHT22;16960;49.404;8.248;2023-02-22T10:59:54;22.60;34.30
30148;DHT22;16960;49.404;8.248;2023-02-22T11:02:30;22.70;34.30
30148;DHT22;16960;49.404;8.248;2023-02-22T11:04:59;22.70;34.20
30148;DHT22;16960;49.404;8.248;2023-02-22T11:07:30;22.70;34.20
30148;DHT22;16960;49.404;8.248;2023-02-22T11:09:59;22.80;34.20
30148;DHT22;16960;49.404;8.248;2023-02-22T11:12:28;22.80;34.20
30148;DHT22;16960;49.404;8.248;2023-02-22T11:14:57;22.80;34.10
30148;DHT22;16960;49.404;8.248;2023-02-22T11:17:30;22.80;34.10
30148;DHT22;16960;49.404;8.248;2023-02-22T11:19:57;22.90;34.20
30148;DHT22;16960;49.404;8.248;2023-02-22T11:22:29;22.90;34.10
30148;DHT22;16960;49.404;8.248;2023-02-22T11:25:00;22.90;34.20
30148;DHT22;16960;49.404;8.248;2023-02-22T11:27:32;22.80;34.10
30148;DHT22;16960;49.404;8.248;2023-02-22T11:30:25;22.80;34.10
30148;DHT22;16960;49.404;8.248;2023-02-22T11:32:56;22.80;34.10
30148;DHT22;16960;49.404;8.248;2023-02-22T11:35:36;22.80;34.10
30148;DHT22;16960;49.404;8.248;2023-02-22T11:38:14;22.80;34.20
30148;DHT22;16960;49.404;8.248;2023-02-22T11:40:42;22.70;34.20
30148;DHT22;16960;49.404;8.248;2023-02-22T11:43:14;22.70;34.30
30148;DHT22;16960;49.404;8.248;2023-02-22T11:46:00;22.70;34.40
30148;DHT22;16960;49.404;8.248;2023-02-22T11:48:29;22.70;34.40
30148;DHT22;16960;49.404;8.248;2023-02-22T11:51:09;22.60;34.30
30148;DHT22;16960;49.404;8.248;2023-02-22T11:56:36;22.70;34.40
30148;DHT22;16960;49.404;8.248;2023-02-22T11:59:13;22.70;34.50
30148;DHT22;16960;49.404;8.248;2023-02-22T12:01:47;22.70;34.50
30148;DHT22;16960;49.404;8.248;2023-02-22T12:04:49;22.70;34.50
30148;DHT22;16960;49.404;8.248;2023-02-22T12:07:28;22.70;34.50
30148;DHT22;16960;49.404;8.248;2023-02-22T12:10:04;22.70;34.50
30148;DHT22;16960;49.404;8.248;2023-02-22T12:12:39;22.70;34.60
30148;DHT22;16960;49.404;8.248;2023-02-22T12:15:12;22.80;34.60
30148;DHT22;16960;49.404;8.248;2023-02-22T12:17:49;22.80;34.60
30148;DHT22;16960;49.404;8.248;2023-02-22T12:20:20;22.80;34.50
30148;DHT22;16960;49.404;8.248;2023-02-22T12:22:55;22.70;34.70
30148;DHT22;16960;49.404;8.248;2023-02-22T12:25:27;22.70;34.70
30148;DHT22;16960;49.404;8.248;2023-02-22T12:28:01;22.70;34.70
30148;DHT22;16960;49.404;8.248;2023-02-22T12:30:35;22.60;34.80
30148;DHT22;16960;49.404;8.248;2023-02-22T12:33:11;22.60;34.80
30148;DHT22;16960;49.404;8.248;2023-02-22T12:35:42;22.60;34.80
30148;DHT22;16960;49.404;8.248;2023-02-22T12:38:16;22.50;34.90
30148;DHT22;16960;49.404;8.248;2023-02-22T12:40:53;22.50;35.00
30148;DHT22;16960;49.404;8.248;2023-02-22T12:43:26;22.50;35.00
30148;DHT22;16960;49.404;8.248;2023-02-22T12:45:59;22.50;35.10
30148;DHT22;16960;49.404;8.248;2023-02-22T12:48:37;22.50;35.10
30148;DHT22;16960;49.404;8.248;2023-02-22T12:51:17;22.50;35.10
30148;DHT22;16960;49.404;8.248;2023-02-22T12:53:53;22.50;35.10
30148;DHT22;16960;49.404;8.248;2023-02-22T12:56:27;22.50;35.10
30148;DHT22;16960;49.404;8.248;2023-02-22T12:59:00;22.50;35.20
30148;DHT22;16960;49.404;8.248;2023-02-22T13:01:33;22.40;35.10
30148;DHT22;16960;49.404;8.248;2023-02-22T13:04:02;22.50;35.20
30148;DHT22;16960;49.404;8.248;2023-02-22T13:06:40;22.50;35.20
30148;DHT22;16960;49.404;8.248;2023-02-22T13:09:21;22.50;35.20
30148;DHT22;16960;49.404;8.248;2023-02-22T13:11:58;22.50;35.20
30148;DHT22;16960;49.404;8.248;2023-02-22T13:14:51;22.50;35.20
30148;DHT22;16960;49.404;8.248;2023-02-22T13:17:29;22.50;35.20
30148;DHT22;16960;49.404;8.248;2023-02-22T13:20:00;22.50;35.20
30148;DHT22;16960;49.404;8.248;2023-02-22T13:22:34;22.50;35.30
30148;DHT22;16960;49.404;8.248;2023-02-22T13:25:07;22.50;35.30
30148;DHT22;16960;49.404;8.248;2023-02-22T13:27:41;22.50;35.30
30148;DHT22;16960;49.404;8.248;2023-02-22T13:30:16;22.50;35.30
30148;DHT22;16960;49.404;8.248;2023-02-22T13:33:05;22.50;35.30
30148;DHT22;16960;49.404;8.248;2023-02-22T13:35:48;22.50;35.30
30148;DHT22;16960;49.404;8.248;2023-02-22T13:38:46;22.50;35.30
30148;DHT22;16960;49.404;8.248;2023-02-22T13:41:33;22.50;35.40
30148;DHT22;16960;49.404;8.248;2023-02-22T13:44:26;22.50;35.40
30148;DHT22;16960;49.404;8.248;2023-02-22T13:47:17;22.50;35.40
30148;DHT22;16960;49.404;8.248;2023-02-22T13:50:19;22.50;35.40
30148;DHT22;16960;49.404;8.248;2023-02-22T13:52:50;22.50;35.40
30148;DHT22;16960;49.404;8.248;2023-02-22T13:55:22;22.60;35.40
30148;DHT22;16960;49.404;8.248;2023-02-22T13:57:59;22.50;35.40
30148;DHT22;16960;49.404;8.248;2023-02-22T14:00:50;22.60;35.50
30148;DHT22;16960;49.404;8.248;2023-02-22T14:03:34;22.60;35.50
30148;DHT22;16960;49.404;8.248;2023-02-22T14:06:37;22.60;35.40
30148;DHT22;16960;49.404;8.248;2023-02-22T14:09:07;22.60;35.40
30148;DHT22;16960;49.404;8.248;2023-02-22T14:11:43;22.60;35.40
30148;DHT22;16960;49.404;8.248;2023-02-22T14:14:17;22.60;35.50
30148;DHT22;16960;49.404;8.248;2023-02-22T14:17:15;22.70;35.60
30148;DHT22;16960;49.404;8.248;2023-02-22T14:20:03;22.70;35.50
30148;DHT22;16960;49.404;8.248;2023-02-22T14:22:39;22.70;35.40
30148;DHT22;16960;49.404;8.248;2023-02-22T14:25:32;22.70;35.40
30148;DHT22;16960;49.404;8.248;2023-02-22T14:28:00;22.70;35.40
30148;DHT22;16960;49.404;8.248;2023-02-22T14:30:30;22.70;35.40
30148;DHT22;16960;49.404;8.248;2023-02-22T14:32:59;22.70;35.40
30148;DHT22;16960;49.404;8.248;2023-02-22T14:35:33;22.70;35.40
30148;DHT22;16960;49.404;8.248;2023-02-22T14:38:03;22.70;35.40
30148;DHT22;16960;49.404;8.248;2023-02-22T14:40:33;22.70;35.40
30148;DHT22;16960;49.404;8.248;2023-02-22T14:43:03;22.70;35.40
30148;DHT22;16960;49.404;8.248;2023-02-22T14:45:33;22.60;35.30
30148;DHT22;16960;49.404;8.248;2023-02-22T14:48:07;22.60;35.30
30148;DHT22;16960;49.404;8.248;2023-02-22T14:50:43;22.60;35.50
30148;DHT22;16960;49.404;8.248;2023-02-22T14:53:21;22.60;35.60
30148;DHT22;16960;49.404;8.248;2023-02-22T14:55:53;22.60;35.50
30148;DHT22;16960;49.404;8.248;2023-02-22T14:58:24;22.60;35.50
30148;DHT22;16960;49.404;8.248;2023-02-22T15:00:55;22.50;35.60
30148;DHT22;16960;49.404;8.248;2023-02-22T15:03:28;22.50;35.60
30148;DHT22;16960;49.404;8.248;2023-02-22T15:06:03;22.50;35.60
30148;DHT22;16960;49.404;8.248;2023-02-22T15:08:30;22.40;35.60
30148;DHT22;16960;49.404;8.248;2023-02-22T15:10:59;22.40;35.60
30148;DHT22;16960;49.404;8.248;2023-02-22T15:13:28;22.40;35.70
30148;DHT22;16960;49.404;8.248;2023-02-22T15:15:59;22.40;35.60
30148;DHT22;16960;49.404;8.248;2023-02-22T15:18:32;22.40;35.60
30148;DHT22;16960;49.404;8.248;2023-02-22T15:21:05;22.50;35.70
30148;DHT22;16960;49.404;8.248;2023-02-22T15:23:40;22.50;35.60
30148;DHT22;16960;49.404;8.248;2023-02-22T15:26:15;22.50;35.60
30148;DHT22;16960;49.404;8.248;2023-02-22T15:28:43;22.50;35.60
30148;DHT22;16960;49.404;8.248;2023-02-22T15:31:23;22.50;35.70
30148;DHT22;16960;49.404;8.248;2023-02-22T15:33:52;22.50;35.70
30148;DHT22;16960;49.404;8.248;2023-02-22T15:36:22;22.50;35.60
30148;DHT22;16960;49.404;8.248;2023-02-22T15:38:52;22.50;35.60
30148;DHT22;16960;49.404;8.248;2023-02-22T15:41:24;22.50;35.70
30148;DHT22;16960;49.404;8.248;2023-02-22T15:43:57;22.40;35.60
30148;DHT22;16960;49.404;8.248;2023-02-22T15:46:24;22.50;35.80
30148;DHT22;16960;49.404;8.248;2023-02-22T15:49:19;22.40;35.60
30148;DHT22;16960;49.404;8.248;2023-02-22T15:52:03;22.40;35.70
30148;DHT22;16960;49.404;8.248;2023-02-22T15:54:43;22.50;35.80
30148;DHT22;16960;49.404;8.248;2023-02-22T15:57:16;22.40;35.70
30148;DHT22;16960;49.404;8.248;2023-02-22T15:59:47;22.40;35.70
30148;DHT22;16960;49.404;8.248;2023-02-22T16:02:35;22.40;35.70
30148;DHT22;16960;49.404;8.248;2023-02-22T16:05:08;22.40;35.70
30148;DHT22;16960;49.404;8.248;2023-02-22T16:07:38;22.40;35.80